sensor_id;sensor_type;location;lat;lon;timestamp;P1;durP1;ratioP1;P2;durP2;ratioP2
11514;SDS011;5814;41.936;25.556;2022-11-15T00:00:30;58.83;;;52.73;;
11514;SDS011;5814;41.936;25.556;2022-11-15T00:02:57;59.60;;;53.47;;
11514;SDS011;5814;41.936;25.556;2022-11-15T00:05:25;60.80;;;54.03;;
11514;SDS011;5814;41.936;25.556;2022-11-15T00:07:52;53.10;;;47.60;;
11514;SDS011;5814;41.936;25.556;2022-11-15T00:10:19;59.33;;;53.37;;
11514;SDS011;5814;41.936;25.556;2022-11-15T00:12:46;51.43;;;46.53;;
11514;SDS011;5814;41.936;25.556;2022-11-15T00:15:13;48.93;;;44.17;;
11514;SDS011;5814;41.936;25.556;2022-11-15T00:17:41;55.27;;;49.50;;
11514;SDS011;5814;41.936;25.556;2022-11-15T00:20:08;45.97;;;41.73;;
11514;SDS011;5814;41.936;25.556;2022-11-15T00:22:35;55.57;;;50.03;;
11514;SDS011;5814;41.936;25.556;2022-11-15T00:25:03;46.27;;;41.83;;
11514;SDS011;5814;41.936;25.556;2022-11-15T00:27:30;54.53;;;48.90;;
11514;SDS011;5814;41.936;25.556;2022-11-15T00:29:57;44.67;;;40.37;;
11514;SDS011;5814;41.936;25.556;2022-11-15T00:32:25;54.17;;;46.60;;
11514;SDS011;5814;41.936;25.556;2022-11-15T00:34:52;45.80;;;41.20;;
11514;SDS011;5814;41.936;25.556;2022-11-15T00:37:19;49.07;;;43.83;;
11514;SDS011;5814;41.936;25.556;2022-11-15T00:39:46;48.20;;;43.10;;
11514;SDS011;5814;41.936;25.556;2022-11-15T00:42:13;49.60;;;44.20;;
11514;SDS011;5814;41.936;25.556;2022-11-15T00:44:40;59.50;;;46.77;;
11514;SDS011;5814;41.936;25.556;2022-11-15T00:47:08;68.20;;;50.53;;
11514;SDS011;5814;41.936;25.556;2022-11-15T00:49:35;82.47;;;55.07;;
11514;SDS011;5814;41.936;25.556;2022-11-15T00:52:02;86.60;;;55.07;;
11514;SDS011;5814;41.936;25.556;2022-11-15T00:54:29;109.07;;;59.40;;
11514;SDS011;5814;41.936;25.556;2022-11-15T00:56:56;101.13;;;59.57;;
11514;SDS011;5814;41.936;25.556;2022-11-15T00:59:24;96.33;;;59.27;;
11514;SDS011;5814;41.936;25.556;2022-11-15T01:01:51;107.20;;;62.20;;
11514;SDS011;5814;41.936;25.556;2022-11-15T01:04:18;118.60;;;65.13;;
11514;SDS011;5814;41.936;25.556;2022-11-15T01:06:45;124.83;;;65.03;;
11514;SDS011;5814;41.936;25.556;2022-11-15T01:09:12;121.57;;;65.13;;
11514;SDS011;5814;41.936;25.556;2022-11-15T01:11:40;128.87;;;66.40;;
11514;SDS011;5814;41.936;25.556;2022-11-15T01:14:07;158.67;;;66.90;;
11514;SDS011;5814;41.936;25.556;2022-11-15T01:16:34;204.40;;;68.23;;
11514;SDS011;5814;41.936;25.556;2022-11-15T01:19:01;142.07;;;63.10;;
11514;SDS011;5814;41.936;25.556;2022-11-15T01:21:29;212.60;;;66.23;;
11514;SDS011;5814;41.936;25.556;2022-11-15T01:23:56;138.60;;;64.57;;
11514;SDS011;5814;41.936;25.556;2022-11-15T01:26:24;277.57;;;72.00;;
11514;SDS011;5814;41.936;25.556;2022-11-15T01:28:50;269.77;;;71.37;;
11514;SDS011;5814;41.936;25.556;2022-11-15T01:31:18;194.83;;;68.00;;
11514;SDS011;5814;41.936;25.556;2022-11-15T01:33:45;263.50;;;73.47;;
11514;SDS011;5814;41.936;25.556;2022-11-15T01:36:15;316.23;;;80.43;;
11514;SDS011;5814;41.936;25.556;2022-11-15T01:38:41;294.53;;;76.37;;
11514;SDS011;5814;41.936;25.556;2022-11-15T01:43:43;165.93;;;63.93;;
11514;SDS011;5814;41.936;25.556;2022-11-15T01:49:01;268.33;;;71.10;;
11514;SDS011;5814;41.936;25.556;2022-11-15T01:51:28;275.80;;;66.67;;
11514;SDS011;5814;41.936;25.556;2022-11-15T01:53:55;196.13;;;63.47;;
11514;SDS011;5814;41.936;25.556;2022-11-15T01:56:23;270.43;;;68.03;;
11514;SDS011;5814;41.936;25.556;2022-11-15T01:58:50;247.20;;;65.63;;
11514;SDS011;5814;41.936;25.556;2022-11-15T02:01:17;185.03;;;58.23;;
11514;SDS011;5814;41.936;25.556;2022-11-15T02:03:51;181.90;;;60.00;;
11514;SDS011;5814;41.936;25.556;2022-11-15T02:06:18;154.97;;;60.07;;
11514;SDS011;5814;41.936;25.556;2022-11-15T02:08:45;285.40;;;73.33;;
11514;SDS011;5814;41.936;25.556;2022-11-15T02:11:12;194.57;;;66.60;;
11514;SDS011;5814;41.936;25.556;2022-11-15T02:13:40;177.77;;;62.67;;
11514;SDS011;5814;41.936;25.556;2022-11-15T02:16:13;286.40;;;74.87;;
11514;SDS011;5814;41.936;25.556;2022-11-15T02:18:41;170.13;;;65.23;;
11514;SDS011;5814;41.936;25.556;2022-11-15T02:21:12;272.53;;;73.93;;
11514;SDS011;5814;41.936;25.556;2022-11-15T02:23:54;318.17;;;74.90;;
11514;SDS011;5814;41.936;25.556;2022-11-15T02:26:54;356.90;;;72.83;;
11514;SDS011;5814;41.936;25.556;2022-11-15T02:29:03;393.37;;;73.07;;
11514;SDS011;5814;41.936;25.556;2022-11-15T02:31:44;266.67;;;60.80;;
11514;SDS011;5814;41.936;25.556;2022-11-15T02:34:28;287.30;;;67.23;;
11514;SDS011;5814;41.936;25.556;2022-11-15T02:37:07;313.27;;;66.40;;
11514;SDS011;5814;41.936;25.556;2022-11-15T02:39:42;363.77;;;67.90;;
11514;SDS011;5814;41.936;25.556;2022-11-15T02:42:25;247.30;;;60.83;;
11514;SDS011;5814;41.936;25.556;2022-11-15T02:44:57;368.93;;;69.30;;
11514;SDS011;5814;41.936;25.556;2022-11-15T02:47:26;141.10;;;52.17;;
11514;SDS011;5814;41.936;25.556;2022-11-15T02:49:53;234.67;;;62.17;;
11514;SDS011;5814;41.936;25.556;2022-11-15T02:52:21;294.17;;;65.33;;
11514;SDS011;5814;41.936;25.556;2022-11-15T02:54:56;149.70;;;56.17;;
11514;SDS011;5814;41.936;25.556;2022-11-15T02:57:36;219.93;;;58.47;;
11514;SDS011;5814;41.936;25.556;2022-11-15T03:03:20;295.77;;;67.00;;
11514;SDS011;5814;41.936;25.556;2022-11-15T03:05:49;235.30;;;61.97;;
11514;SDS011;5814;41.936;25.556;2022-11-15T03:08:17;184.00;;;58.33;;
11514;SDS011;5814;41.936;25.556;2022-11-15T03:10:59;184.93;;;50.20;;
11514;SDS011;5814;41.936;25.556;2022-11-15T03:13:43;163.00;;;46.60;;
11514;SDS011;5814;41.936;25.556;2022-11-15T03:16:15;122.47;;;52.13;;
11514;SDS011;5814;41.936;25.556;2022-11-15T03:18:41;133.40;;;53.20;;
11514;SDS011;5814;41.936;25.556;2022-11-15T03:21:08;109.50;;;57.17;;
11514;SDS011;5814;41.936;25.556;2022-11-15T03:23:35;101.57;;;52.17;;
11514;SDS011;5814;41.936;25.556;2022-11-15T03:26:02;103.33;;;56.00;;
11514;SDS011;5814;41.936;25.556;2022-11-15T03:28:32;100.03;;;50.00;;
11514;SDS011;5814;41.936;25.556;2022-11-15T03:30:58;90.47;;;49.10;;
11514;SDS011;5814;41.936;25.556;2022-11-15T03:33:25;89.30;;;45.50;;
11514;SDS011;5814;41.936;25.556;2022-11-15T03:35:52;91.37;;;50.53;;
11514;SDS011;5814;41.936;25.556;2022-11-15T03:38:23;85.13;;;49.73;;
11514;SDS011;5814;41.936;25.556;2022-11-15T03:40:54;90.23;;;51.60;;
11514;SDS011;5814;41.936;25.556;2022-11-15T03:43:24;87.43;;;52.60;;
11514;SDS011;5814;41.936;25.556;2022-11-15T03:45:58;83.03;;;49.90;;
11514;SDS011;5814;41.936;25.556;2022-11-15T03:48:24;84.87;;;51.87;;
11514;SDS011;5814;41.936;25.556;2022-11-15T03:50:51;80.07;;;53.60;;
11514;SDS011;5814;41.936;25.556;2022-11-15T03:53:18;73.60;;;48.87;;
11514;SDS011;5814;41.936;25.556;2022-11-15T03:55:45;70.30;;;47.47;;
11514;SDS011;5814;41.936;25.556;2022-11-15T03:58:12;67.13;;;44.60;;
11514;SDS011;5814;41.936;25.556;2022-11-15T04:00:40;70.30;;;48.23;;
11514;SDS011;5814;41.936;25.556;2022-11-15T04:03:07;74.07;;;50.00;;
11514;SDS011;5814;41.936;25.556;2022-11-15T04:05:34;75.27;;;49.97;;
11514;SDS011;5814;41.936;25.556;2022-11-15T04:08:01;65.50;;;45.83;;
11514;SDS011;5814;41.936;25.556;2022-11-15T04:10:28;64.93;;;48.30;;
11514;SDS011;5814;41.936;25.556;2022-11-15T04:12:56;76.37;;;53.00;;
11514;SDS011;5814;41.936;25.556;2022-11-15T04:15:23;62.77;;;44.47;;
11514;SDS011;5814;41.936;25.556;2022-11-15T04:17:51;65.37;;;45.37;;
11514;SDS011;5814;41.936;25.556;2022-11-15T04:20:19;60.97;;;44.63;;
11514;SDS011;5814;41.936;25.556;2022-11-15T04:22:55;55.43;;;43.13;;
11514;SDS011;5814;41.936;25.556;2022-11-15T04:25:28;59.77;;;44.50;;
11514;SDS011;5814;41.936;25.556;2022-11-15T04:27:54;59.33;;;43.83;;
11514;SDS011;5814;41.936;25.556;2022-11-15T04:30:22;57.83;;;45.43;;
11514;SDS011;5814;41.936;25.556;2022-11-15T04:32:49;58.67;;;45.13;;
11514;SDS011;5814;41.936;25.556;2022-11-15T04:35:16;54.53;;;44.87;;
11514;SDS011;5814;41.936;25.556;2022-11-15T04:37:43;59.60;;;48.50;;
11514;SDS011;5814;41.936;25.556;2022-11-15T04:40:10;51.60;;;42.50;;
11514;SDS011;5814;41.936;25.556;2022-11-15T04:42:40;56.83;;;46.23;;
11514;SDS011;5814;41.936;25.556;2022-11-15T04:45:05;51.23;;;43.23;;
11514;SDS011;5814;41.936;25.556;2022-11-15T04:47:33;46.97;;;41.07;;
11514;SDS011;5814;41.936;25.556;2022-11-15T04:50:00;45.83;;;40.70;;
11514;SDS011;5814;41.936;25.556;2022-11-15T04:52:28;54.10;;;45.03;;
11514;SDS011;5814;41.936;25.556;2022-11-15T04:54:55;49.97;;;42.33;;
11514;SDS011;5814;41.936;25.556;2022-11-15T04:57:22;47.43;;;41.20;;
11514;SDS011;5814;41.936;25.556;2022-11-15T04:59:49;48.17;;;40.43;;
11514;SDS011;5814;41.936;25.556;2022-11-15T05:02:16;45.57;;;39.63;;
11514;SDS011;5814;41.936;25.556;2022-11-15T05:04:43;41.87;;;37.47;;
11514;SDS011;5814;41.936;25.556;2022-11-15T05:07:11;44.53;;;39.93;;
11514;SDS011;5814;41.936;25.556;2022-11-15T05:09:38;42.60;;;38.23;;
11514;SDS011;5814;41.936;25.556;2022-11-15T05:12:05;41.40;;;37.30;;
11514;SDS011;5814;41.936;25.556;2022-11-15T05:14:32;44.73;;;40.17;;
11514;SDS011;5814;41.936;25.556;2022-11-15T05:16:59;43.00;;;38.53;;
11514;SDS011;5814;41.936;25.556;2022-11-15T05:19:27;47.60;;;40.67;;
11514;SDS011;5814;41.936;25.556;2022-11-15T05:21:54;43.27;;;38.90;;
11514;SDS011;5814;41.936;25.556;2022-11-15T05:24:21;42.57;;;38.47;;
11514;SDS011;5814;41.936;25.556;2022-11-15T05:26:48;44.20;;;39.83;;
11514;SDS011;5814;41.936;25.556;2022-11-15T05:29:15;40.70;;;36.80;;
11514;SDS011;5814;41.936;25.556;2022-11-15T05:31:42;42.47;;;38.27;;
11514;SDS011;5814;41.936;25.556;2022-11-15T05:34:09;44.13;;;39.90;;
11514;SDS011;5814;41.936;25.556;2022-11-15T05:36:38;48.20;;;43.30;;
11514;SDS011;5814;41.936;25.556;2022-11-15T05:39:05;45.40;;;40.90;;
11514;SDS011;5814;41.936;25.556;2022-11-15T05:41:33;45.47;;;40.97;;
11514;SDS011;5814;41.936;25.556;2022-11-15T05:44:00;45.77;;;40.33;;
11514;SDS011;5814;41.936;25.556;2022-11-15T05:46:27;45.07;;;40.53;;
11514;SDS011;5814;41.936;25.556;2022-11-15T05:48:54;43.97;;;39.57;;
11514;SDS011;5814;41.936;25.556;2022-11-15T05:51:21;48.67;;;43.77;;
11514;SDS011;5814;41.936;25.556;2022-11-15T05:53:49;45.10;;;40.67;;
11514;SDS011;5814;41.936;25.556;2022-11-15T05:56:16;47.60;;;42.83;;
11514;SDS011;5814;41.936;25.556;2022-11-15T05:58:43;47.63;;;42.90;;
11514;SDS011;5814;41.936;25.556;2022-11-15T06:01:10;48.90;;;44.00;;
11514;SDS011;5814;41.936;25.556;2022-11-15T06:03:37;50.73;;;45.53;;
11514;SDS011;5814;41.936;25.556;2022-11-15T06:06:04;48.13;;;43.33;;
11514;SDS011;5814;41.936;25.556;2022-11-15T06:08:32;48.93;;;43.83;;
11514;SDS011;5814;41.936;25.556;2022-11-15T06:11:03;49.17;;;44.37;;
11514;SDS011;5814;41.936;25.556;2022-11-15T06:13:29;48.60;;;43.83;;
11514;SDS011;5814;41.936;25.556;2022-11-15T06:15:56;48.03;;;43.20;;
11514;SDS011;5814;41.936;25.556;2022-11-15T06:18:23;48.13;;;43.30;;
11514;SDS011;5814;41.936;25.556;2022-11-15T06:20:50;50.17;;;44.83;;
11514;SDS011;5814;41.936;25.556;2022-11-15T06:23:17;50.30;;;44.73;;
11514;SDS011;5814;41.936;25.556;2022-11-15T06:25:45;51.57;;;45.97;;
11514;SDS011;5814;41.936;25.556;2022-11-15T06:28:12;49.97;;;44.47;;
11514;SDS011;5814;41.936;25.556;2022-11-15T06:30:39;54.70;;;46.03;;
11514;SDS011;5814;41.936;25.556;2022-11-15T06:33:06;58.93;;;47.40;;
11514;SDS011;5814;41.936;25.556;2022-11-15T06:35:34;56.77;;;46.60;;
11514;SDS011;5814;41.936;25.556;2022-11-15T06:38:05;62.70;;;49.70;;
11514;SDS011;5814;41.936;25.556;2022-11-15T06:40:33;70.10;;;54.97;;
11514;SDS011;5814;41.936;25.556;2022-11-15T06:43:00;67.07;;;50.80;;
11514;SDS011;5814;41.936;25.556;2022-11-15T06:45:27;65.50;;;49.90;;
11514;SDS011;5814;41.936;25.556;2022-11-15T06:47:55;77.13;;;51.40;;
11514;SDS011;5814;41.936;25.556;2022-11-15T06:50:22;82.67;;;50.87;;
11514;SDS011;5814;41.936;25.556;2022-11-15T06:52:49;81.03;;;50.13;;
11514;SDS011;5814;41.936;25.556;2022-11-15T06:55:16;82.27;;;49.97;;
11514;SDS011;5814;41.936;25.556;2022-11-15T06:57:46;83.03;;;49.80;;
11514;SDS011;5814;41.936;25.556;2022-11-15T07:00:14;81.27;;;49.17;;
11514;SDS011;5814;41.936;25.556;2022-11-15T07:02:42;78.13;;;47.57;;
11514;SDS011;5814;41.936;25.556;2022-11-15T07:05:09;82.33;;;49.33;;
11514;SDS011;5814;41.936;25.556;2022-11-15T07:07:36;83.27;;;50.70;;
11514;SDS011;5814;41.936;25.556;2022-11-15T07:10:04;80.53;;;50.90;;
11514;SDS011;5814;41.936;25.556;2022-11-15T07:12:32;82.07;;;51.90;;
11514;SDS011;5814;41.936;25.556;2022-11-15T07:14:59;84.07;;;48.80;;
11514;SDS011;5814;41.936;25.556;2022-11-15T07:17:26;85.97;;;50.60;;
11514;SDS011;5814;41.936;25.556;2022-11-15T07:19:53;86.00;;;55.93;;
11514;SDS011;5814;41.936;25.556;2022-11-15T07:22:20;85.20;;;51.10;;
11514;SDS011;5814;41.936;25.556;2022-11-15T07:24:48;89.43;;;53.30;;
11514;SDS011;5814;41.936;25.556;2022-11-15T07:27:15;90.40;;;52.40;;
11514;SDS011;5814;41.936;25.556;2022-11-15T07:29:42;92.27;;;50.77;;
11514;SDS011;5814;41.936;25.556;2022-11-15T07:32:09;78.50;;;47.13;;
11514;SDS011;5814;41.936;25.556;2022-11-15T07:34:36;70.07;;;41.87;;
11514;SDS011;5814;41.936;25.556;2022-11-15T07:37:03;66.37;;;40.83;;
11514;SDS011;5814;41.936;25.556;2022-11-15T07:39:31;68.83;;;42.30;;
11514;SDS011;5814;41.936;25.556;2022-11-15T07:41:58;69.33;;;41.80;;
11514;SDS011;5814;41.936;25.556;2022-11-15T07:44:30;75.80;;;44.67;;
11514;SDS011;5814;41.936;25.556;2022-11-15T07:46:58;76.70;;;45.90;;
11514;SDS011;5814;41.936;25.556;2022-11-15T07:49:25;76.90;;;48.87;;
11514;SDS011;5814;41.936;25.556;2022-11-15T07:51:52;73.70;;;47.53;;
11514;SDS011;5814;41.936;25.556;2022-11-15T07:54:19;72.63;;;45.90;;
11514;SDS011;5814;41.936;25.556;2022-11-15T07:56:46;73.90;;;46.33;;
11514;SDS011;5814;41.936;25.556;2022-11-15T07:59:14;73.47;;;46.40;;
11514;SDS011;5814;41.936;25.556;2022-11-15T08:01:41;67.60;;;45.43;;
11514;SDS011;5814;41.936;25.556;2022-11-15T08:04:09;73.00;;;46.63;;
11514;SDS011;5814;41.936;25.556;2022-11-15T08:06:35;74.13;;;46.73;;
11514;SDS011;5814;41.936;25.556;2022-11-15T08:09:02;77.70;;;48.33;;
11514;SDS011;5814;41.936;25.556;2022-11-15T08:11:29;77.17;;;50.13;;
11514;SDS011;5814;41.936;25.556;2022-11-15T08:13:57;73.57;;;49.87;;
11514;SDS011;5814;41.936;25.556;2022-11-15T08:16:24;68.37;;;46.10;;
11514;SDS011;5814;41.936;25.556;2022-11-15T08:18:51;65.40;;;44.27;;
11514;SDS011;5814;41.936;25.556;2022-11-15T08:21:19;62.63;;;43.07;;
11514;SDS011;5814;41.936;25.556;2022-11-15T08:23:45;52.57;;;40.07;;
11514;SDS011;5814;41.936;25.556;2022-11-15T08:26:13;56.57;;;40.10;;
11514;SDS011;5814;41.936;25.556;2022-11-15T08:28:40;58.37;;;40.93;;
11514;SDS011;5814;41.936;25.556;2022-11-15T08:31:11;59.63;;;44.57;;
11514;SDS011;5814;41.936;25.556;2022-11-15T08:33:35;59.33;;;41.63;;
11514;SDS011;5814;41.936;25.556;2022-11-15T08:36:02;60.67;;;43.70;;
11514;SDS011;5814;41.936;25.556;2022-11-15T08:38:29;56.33;;;40.43;;
11514;SDS011;5814;41.936;25.556;2022-11-15T08:41:00;55.30;;;40.30;;
11514;SDS011;5814;41.936;25.556;2022-11-15T08:43:25;59.07;;;43.13;;
11514;SDS011;5814;41.936;25.556;2022-11-15T08:45:55;58.87;;;42.90;;
11514;SDS011;5814;41.936;25.556;2022-11-15T08:48:20;52.50;;;41.47;;
11514;SDS011;5814;41.936;25.556;2022-11-15T08:50:47;57.83;;;41.00;;
11514;SDS011;5814;41.936;25.556;2022-11-15T08:53:14;58.73;;;42.73;;
11514;SDS011;5814;41.936;25.556;2022-11-15T08:55:41;58.03;;;42.23;;
11514;SDS011;5814;41.936;25.556;2022-11-15T08:58:09;58.40;;;42.07;;
11514;SDS011;5814;41.936;25.556;2022-11-15T09:00:36;59.27;;;40.73;;
11514;SDS011;5814;41.936;25.556;2022-11-15T09:03:03;56.57;;;39.70;;
11514;SDS011;5814;41.936;25.556;2022-11-15T09:05:30;50.90;;;37.83;;
11514;SDS011;5814;41.936;25.556;2022-11-15T09:07:57;52.70;;;38.40;;
11514;SDS011;5814;41.936;25.556;2022-11-15T09:10:24;51.47;;;36.67;;
11514;SDS011;5814;41.936;25.556;2022-11-15T09:12:52;49.60;;;38.20;;
11514;SDS011;5814;41.936;25.556;2022-11-15T09:15:19;49.77;;;36.33;;
11514;SDS011;5814;41.936;25.556;2022-11-15T09:17:46;53.10;;;37.30;;
11514;SDS011;5814;41.936;25.556;2022-11-15T09:20:14;53.83;;;37.87;;
11514;SDS011;5814;41.936;25.556;2022-11-15T09:22:42;51.67;;;37.60;;
11514;SDS011;5814;41.936;25.556;2022-11-15T09:25:09;50.73;;;41.47;;
11514;SDS011;5814;41.936;25.556;2022-11-15T09:27:36;62.40;;;46.63;;
11514;SDS011;5814;41.936;25.556;2022-11-15T09:30:04;61.67;;;47.77;;
11514;SDS011;5814;41.936;25.556;2022-11-15T09:32:31;59.13;;;44.70;;
11514;SDS011;5814;41.936;25.556;2022-11-15T09:34:59;59.43;;;42.00;;
11514;SDS011;5814;41.936;25.556;2022-11-15T09:37:26;58.10;;;40.43;;
11514;SDS011;5814;41.936;25.556;2022-11-15T09:39:53;49.80;;;37.63;;
11514;SDS011;5814;41.936;25.556;2022-11-15T09:42:25;57.13;;;39.57;;
11514;SDS011;5814;41.936;25.556;2022-11-15T09:45:11;44.50;;;34.33;;
11514;SDS011;5814;41.936;25.556;2022-11-15T09:48:26;48.67;;;37.73;;
11514;SDS011;5814;41.936;25.556;2022-11-15T09:50:39;45.90;;;35.80;;
11514;SDS011;5814;41.936;25.556;2022-11-15T09:53:09;46.57;;;35.60;;
11514;SDS011;5814;41.936;25.556;2022-11-15T09:55:37;45.33;;;35.87;;
11514;SDS011;5814;41.936;25.556;2022-11-15T09:58:10;46.30;;;36.43;;
11514;SDS011;5814;41.936;25.556;2022-11-15T10:00:39;50.17;;;38.60;;
11514;SDS011;5814;41.936;25.556;2022-11-15T10:03:14;73.90;;;48.50;;
11514;SDS011;5814;41.936;25.556;2022-11-15T10:05:42;77.23;;;50.57;;
11514;SDS011;5814;41.936;25.556;2022-11-15T10:10:44;67.60;;;45.77;;
11514;SDS011;5814;41.936;25.556;2022-11-15T10:13:26;62.07;;;44.57;;
11514;SDS011;5814;41.936;25.556;2022-11-15T10:15:39;60.47;;;43.17;;
11514;SDS011;5814;41.936;25.556;2022-11-15T10:20:49;59.77;;;44.40;;
11514;SDS011;5814;41.936;25.556;2022-11-15T10:23:17;63.17;;;44.90;;
11514;SDS011;5814;41.936;25.556;2022-11-15T10:25:43;55.57;;;41.73;;
11514;SDS011;5814;41.936;25.556;2022-11-15T10:28:14;58.53;;;43.93;;
11514;SDS011;5814;41.936;25.556;2022-11-15T10:30:47;60.87;;;42.60;;
11514;SDS011;5814;41.936;25.556;2022-11-15T10:38:52;52.87;;;38.77;;
11514;SDS011;5814;41.936;25.556;2022-11-15T10:41:20;50.10;;;38.17;;
11514;SDS011;5814;41.936;25.556;2022-11-15T10:46:41;55.07;;;38.57;;
11514;SDS011;5814;41.936;25.556;2022-11-15T10:49:25;53.00;;;39.33;;
11514;SDS011;5814;41.936;25.556;2022-11-15T10:51:54;54.97;;;40.03;;
11514;SDS011;5814;41.936;25.556;2022-11-15T10:54:24;56.97;;;37.03;;
11514;SDS011;5814;41.936;25.556;2022-11-15T10:56:57;54.60;;;38.50;;
11514;SDS011;5814;41.936;25.556;2022-11-15T10:59:25;63.90;;;39.10;;
11514;SDS011;5814;41.936;25.556;2022-11-15T11:01:52;56.93;;;39.40;;
11514;SDS011;5814;41.936;25.556;2022-11-15T11:04:20;54.03;;;38.67;;
11514;SDS011;5814;41.936;25.556;2022-11-15T11:06:48;53.50;;;36.70;;
11514;SDS011;5814;41.936;25.556;2022-11-15T11:11:48;52.73;;;38.17;;
11514;SDS011;5814;41.936;25.556;2022-11-15T11:14:21;47.53;;;35.80;;
11514;SDS011;5814;41.936;25.556;2022-11-15T11:19:43;43.77;;;34.37;;
11514;SDS011;5814;41.936;25.556;2022-11-15T11:22:13;47.40;;;34.07;;
11514;SDS011;5814;41.936;25.556;2022-11-15T11:24:44;43.87;;;34.33;;
11514;SDS011;5814;41.936;25.556;2022-11-15T11:27:32;46.03;;;35.63;;
11514;SDS011;5814;41.936;25.556;2022-11-15T11:30:20;45.00;;;36.27;;
11514;SDS011;5814;41.936;25.556;2022-11-15T11:32:55;49.97;;;35.13;;
11514;SDS011;5814;41.936;25.556;2022-11-15T11:35:29;40.13;;;32.53;;
11514;SDS011;5814;41.936;25.556;2022-11-15T11:38:01;38.70;;;33.67;;
11514;SDS011;5814;41.936;25.556;2022-11-15T11:43:21;41.57;;;34.03;;
11514;SDS011;5814;41.936;25.556;2022-11-15T11:45:48;44.17;;;34.23;;
11514;SDS011;5814;41.936;25.556;2022-11-15T11:48:21;43.73;;;33.77;;
11514;SDS011;5814;41.936;25.556;2022-11-15T11:50:47;38.50;;;31.40;;
11514;SDS011;5814;41.936;25.556;2022-11-15T11:53:18;32.80;;;29.23;;
11514;SDS011;5814;41.936;25.556;2022-11-15T11:55:45;30.03;;;26.87;;
11514;SDS011;5814;41.936;25.556;2022-11-15T11:58:19;32.83;;;29.03;;
11514;SDS011;5814;41.936;25.556;2022-11-15T12:00:51;30.33;;;27.03;;
11514;SDS011;5814;41.936;25.556;2022-11-15T12:03:32;41.97;;;33.37;;
11514;SDS011;5814;41.936;25.556;2022-11-15T12:06:04;28.60;;;25.90;;
11514;SDS011;5814;41.936;25.556;2022-11-15T12:08:31;30.33;;;27.30;;
11514;SDS011;5814;41.936;25.556;2022-11-15T12:11:10;30.07;;;27.13;;
11514;SDS011;5814;41.936;25.556;2022-11-15T12:13:36;28.50;;;25.83;;
11514;SDS011;5814;41.936;25.556;2022-11-15T12:18:39;30.83;;;27.67;;
11514;SDS011;5814;41.936;25.556;2022-11-15T12:21:07;29.30;;;26.63;;
11514;SDS011;5814;41.936;25.556;2022-11-15T12:23:38;36.70;;;32.47;;
11514;SDS011;5814;41.936;25.556;2022-11-15T12:26:15;30.47;;;27.47;;
11514;SDS011;5814;41.936;25.556;2022-11-15T12:28:46;32.63;;;29.53;;
11514;SDS011;5814;41.936;25.556;2022-11-15T12:31:15;28.80;;;26.27;;
11514;SDS011;5814;41.936;25.556;2022-11-15T12:33:43;30.13;;;27.30;;
11514;SDS011;5814;41.936;25.556;2022-11-15T12:36:11;29.07;;;26.50;;
11514;SDS011;5814;41.936;25.556;2022-11-15T12:38:52;29.80;;;26.97;;
11514;SDS011;5814;41.936;25.556;2022-11-15T12:41:26;32.43;;;29.33;;
11514;SDS011;5814;41.936;25.556;2022-11-15T12:43:53;28.37;;;25.67;;
11514;SDS011;5814;41.936;25.556;2022-11-15T12:46:58;31.53;;;28.13;;
11514;SDS011;5814;41.936;25.556;2022-11-15T12:48:52;32.70;;;29.27;;
11514;SDS011;5814;41.936;25.556;2022-11-15T12:51:20;37.00;;;33.30;;
11514;SDS011;5814;41.936;25.556;2022-11-15T12:53:46;32.93;;;29.47;;
11514;SDS011;5814;41.936;25.556;2022-11-15T12:56:18;29.20;;;26.03;;
11514;SDS011;5814;41.936;25.556;2022-11-15T12:58:45;31.57;;;28.57;;
11514;SDS011;5814;41.936;25.556;2022-11-15T13:06:34;34.97;;;31.60;;
11514;SDS011;5814;41.936;25.556;2022-11-15T13:09:03;34.53;;;31.23;;
11514;SDS011;5814;41.936;25.556;2022-11-15T13:14:34;39.43;;;35.47;;
11514;SDS011;5814;41.936;25.556;2022-11-15T13:16:44;31.73;;;28.73;;
11514;SDS011;5814;41.936;25.556;2022-11-15T13:19:11;32.20;;;28.87;;
11514;SDS011;5814;41.936;25.556;2022-11-15T13:21:39;32.90;;;29.67;;
11514;SDS011;5814;41.936;25.556;2022-11-15T13:24:12;34.70;;;31.20;;
11514;SDS011;5814;41.936;25.556;2022-11-15T13:26:40;33.33;;;30.10;;
11514;SDS011;5814;41.936;25.556;2022-11-15T13:29:14;36.00;;;32.53;;
11514;SDS011;5814;41.936;25.556;2022-11-15T13:31:42;39.73;;;35.87;;
11514;SDS011;5814;41.936;25.556;2022-11-15T13:34:19;39.73;;;35.60;;
11514;SDS011;5814;41.936;25.556;2022-11-15T13:36:49;33.80;;;30.77;;
11514;SDS011;5814;41.936;25.556;2022-11-15T13:41:50;35.63;;;32.20;;
11514;SDS011;5814;41.936;25.556;2022-11-15T13:44:21;33.43;;;30.13;;
11514;SDS011;5814;41.936;25.556;2022-11-15T13:47:03;31.33;;;28.43;;
11514;SDS011;5814;41.936;25.556;2022-11-15T13:49:31;32.57;;;29.40;;
11514;SDS011;5814;41.936;25.556;2022-11-15T13:51:58;33.87;;;30.57;;
11514;SDS011;5814;41.936;25.556;2022-11-15T13:54:28;31.63;;;28.57;;
11514;SDS011;5814;41.936;25.556;2022-11-15T13:56:57;33.33;;;30.03;;
11514;SDS011;5814;41.936;25.556;2022-11-15T13:59:26;36.10;;;32.43;;
11514;SDS011;5814;41.936;25.556;2022-11-15T14:01:52;36.83;;;33.13;;
11514;SDS011;5814;41.936;25.556;2022-11-15T14:04:20;35.27;;;31.87;;
11514;SDS011;5814;41.936;25.556;2022-11-15T14:06:48;33.00;;;29.80;;
11514;SDS011;5814;41.936;25.556;2022-11-15T14:09:18;34.33;;;31.07;;
11514;SDS011;5814;41.936;25.556;2022-11-15T14:14:15;39.53;;;35.63;;
11514;SDS011;5814;41.936;25.556;2022-11-15T14:16:44;36.63;;;33.43;;
11514;SDS011;5814;41.936;25.556;2022-11-15T14:19:12;36.00;;;32.60;;
11514;SDS011;5814;41.936;25.556;2022-11-15T14:24:32;41.50;;;37.47;;
11514;SDS011;5814;41.936;25.556;2022-11-15T14:29:38;40.57;;;36.93;;
11514;SDS011;5814;41.936;25.556;2022-11-15T14:32:12;41.43;;;37.10;;
11514;SDS011;5814;41.936;25.556;2022-11-15T14:34:33;41.97;;;37.93;;
11514;SDS011;5814;41.936;25.556;2022-11-15T14:37:00;41.07;;;37.13;;
11514;SDS011;5814;41.936;25.556;2022-11-15T14:39:27;43.93;;;39.43;;
11514;SDS011;5814;41.936;25.556;2022-11-15T14:41:54;48.47;;;43.33;;
11514;SDS011;5814;41.936;25.556;2022-11-15T14:44:22;49.13;;;44.07;;
11514;SDS011;5814;41.936;25.556;2022-11-15T14:46:49;47.73;;;43.00;;
11514;SDS011;5814;41.936;25.556;2022-11-15T14:49:16;49.20;;;43.93;;
11514;SDS011;5814;41.936;25.556;2022-11-15T14:51:43;52.80;;;47.23;;
11514;SDS011;5814;41.936;25.556;2022-11-15T14:54:10;51.07;;;45.30;;
11514;SDS011;5814;41.936;25.556;2022-11-15T14:56:37;55.40;;;49.13;;
11514;SDS011;5814;41.936;25.556;2022-11-15T14:59:05;53.17;;;47.40;;
11514;SDS011;5814;41.936;25.556;2022-11-15T15:01:32;54.43;;;47.67;;
11514;SDS011;5814;41.936;25.556;2022-11-15T15:03:59;55.63;;;49.63;;
11514;SDS011;5814;41.936;25.556;2022-11-15T15:06:26;59.10;;;52.57;;
11514;SDS011;5814;41.936;25.556;2022-11-15T15:08:53;63.10;;;54.00;;
11514;SDS011;5814;41.936;25.556;2022-11-15T15:11:21;65.97;;;55.53;;
11514;SDS011;5814;41.936;25.556;2022-11-15T15:13:50;70.50;;;56.33;;
11514;SDS011;5814;41.936;25.556;2022-11-15T15:16:17;72.90;;;59.33;;
11514;SDS011;5814;41.936;25.556;2022-11-15T15:18:44;75.03;;;61.33;;